createdAt,value
2023-02-06T00:03:00.726Z,99016.25
2023-02-06T00:07:03.409Z,99008.00
2023-02-06T00:11:07.544Z,98987.66
2023-02-06T00:15:08.650Z,99009.53
2023-02-06T00:19:08.856Z,98986.84
2023-02-06T00:23:11.503Z,98998.13
2023-02-06T00:27:11.671Z,99004.44
2023-02-06T00:31:12.906Z,99007.22
2023-02-06T00:35:13.057Z,98990.47
2023-02-06T00:39:16.876Z,99018.88
2023-02-06T00:43:17.411Z,99007.22
2023-02-06T00:47:17.797Z,99012.56
2023-02-06T00:51:19.161Z,99010.34
2023-02-06T00:55:22.132Z,98981.28
2023-02-06T00:59:22.266Z,99012.09
2023-02-06T01:03:22.323Z,98992.59
2023-02-06T01:07:22.434Z,98994.63
2023-02-06T01:11:28.599Z,98977.63
2023-02-06T01:15:28.988Z,98960.19
2023-02-06T01:19:29.689Z,98972.22
2023-02-06T01:23:29.837Z,98989.63
2023-02-06T01:27:33.132Z,98921.91
2023-02-06T01:31:34.836Z,98967.22
2023-02-06T01:35:37.630Z,98981.00
2023-02-06T01:39:37.973Z,99005.06
2023-02-06T01:43:45.526Z,99003.28
2023-02-06T01:47:45.611Z,98994.38
2023-02-06T01:51:46.675Z,98978.94
2023-02-06T01:55:50.443Z,99011.88
2023-02-06T02:00:01.896Z,99012.84
2023-02-06T02:04:20.733Z,99009.97
2023-02-06T02:08:29.373Z,98987.84
2023-02-06T02:12:29.686Z,98981.75
2023-02-06T02:16:50.227Z,98995.69
2023-02-06T02:21:39.219Z,98979.47
2023-02-06T02:26:24.675Z,98991.97
2023-02-06T02:31:03.531Z,98986.56
2023-02-06T02:35:25.371Z,98984.25
2023-02-06T02:39:38.242Z,98984.63
2023-02-06T02:43:45.647Z,98962.97
2023-02-06T02:48:00.889Z,98969.09
2023-02-06T02:52:05.310Z,98946.88
2023-02-06T02:56:12.761Z,98961.66
2023-02-06T03:00:16.069Z,98962.56
2023-02-06T03:04:25.723Z,98983.31
2023-02-06T03:08:41.961Z,98984.81
2023-02-06T03:12:48.805Z,98977.78
2023-02-06T03:16:55.508Z,98977.78
2023-02-06T03:20:55.977Z,98970.47
2023-02-06T03:25:00.795Z,98940.38
2023-02-06T03:29:06.930Z,98962.59
2023-02-06T03:33:11.070Z,98897.28
2023-02-06T03:37:12.164Z,98946.56
2023-02-06T03:41:18.004Z,98955.75
2023-02-06T03:45:25.515Z,98938.28
2023-02-06T03:49:32.167Z,98954.63
2023-02-06T03:53:36.181Z,98967.25
2023-02-06T03:57:40.871Z,98949.97
2023-02-06T04:01:45.131Z,98963.16
2023-02-06T04:05:45.347Z,98981.97
2023-02-06T04:09:45.409Z,98941.69
2023-02-06T04:13:48.026Z,98954.53
2023-02-06T04:17:59.534Z,98963.31
2023-02-06T04:22:00.921Z,98965.16
2023-02-06T04:26:01.212Z,98959.16
2023-02-06T04:30:04.100Z,98954.25
2023-02-06T04:34:04.210Z,98955.84
2023-02-06T04:38:04.341Z,98947.59
2023-02-06T04:42:04.657Z,98945.56
2023-02-06T04:46:07.720Z,98976.66
2023-02-06T04:50:10.581Z,98960.50
2023-02-06T04:54:14.569Z,98979.44
2023-02-06T04:58:15.040Z,98953.72
2023-02-06T05:02:18.054Z,98973.91
2023-02-06T05:06:19.123Z,98947.25
2023-02-06T05:10:19.513Z,98948.91
2023-02-06T05:14:19.685Z,98941.50
2023-02-06T05:18:23.140Z,98945.19
2023-02-06T05:22:23.215Z,98954.97
2023-02-06T05:26:23.733Z,98941.97
2023-02-06T05:30:24.161Z,98947.00
2023-02-06T05:34:27.159Z,98959.22
2023-02-06T05:38:27.404Z,98963.59
2023-02-06T05:42:28.061Z,98955.56
2023-02-06T05:46:28.458Z,98966.31
2023-02-06T05:50:31.237Z,98956.78
2023-02-06T05:54:32.492Z,98952.03
2023-02-06T05:58:32.632Z,98950.56
2023-02-06T06:02:32.691Z,98960.44
2023-02-06T06:06:35.487Z,98962.44
2023-02-06T06:10:35.622Z,98963.91
2023-02-06T06:14:35.682Z,98953.47
2023-02-06T06:18:35.920Z,98977.06
2023-02-06T06:22:39.659Z,98961.91
2023-02-06T06:26:39.749Z,98963.66
2023-02-06T06:30:40.282Z,98961.66
2023-02-06T06:34:40.366Z,98956.34
2023-02-06T06:38:43.087Z,98968.03
2023-02-06T06:42:43.346Z,98953.66
2023-02-06T06:46:43.540Z,98962.19
2023-02-06T06:50:43.756Z,98983.78
2023-02-06T06:54:46.714Z,98976.50
2023-02-06T06:58:46.998Z,98959.16
2023-02-06T07:02:47.331Z,98968.31
2023-02-06T07:06:47.468Z,98951.09
2023-02-06T07:10:50.836Z,98950.38
2023-02-06T07:14:51.078Z,98954.13
2023-02-06T07:18:51.200Z,98950.78
2023-02-06T07:22:51.502Z,98957.84
2023-02-06T07:26:54.112Z,98959.03
2023-02-06T07:30:54.173Z,98929.41
2023-02-06T07:34:54.332Z,98931.22
2023-02-06T07:38:54.389Z,98916.28
2023-02-06T07:42:57.026Z,98925.09
2023-02-06T07:47:00.486Z,98950.16
2023-02-06T07:51:06.225Z,98940.00
2023-02-06T07:55:06.833Z,98929.56
2023-02-06T07:59:10.288Z,98946.16
2023-02-06T08:03:10.917Z,98886.91
2023-02-06T08:07:15.075Z,98951.75
2023-02-06T08:11:18.704Z,98945.50
2023-02-06T08:15:21.656Z,98939.53
2023-02-06T08:19:21.894Z,98944.50
2023-02-06T08:23:22.278Z,98927.63
2023-02-06T08:27:22.455Z,98932.53
2023-02-06T08:31:28.936Z,98934.09
2023-02-06T08:35:29.556Z,98916.13
2023-02-06T08:39:30.749Z,98914.13
2023-02-06T08:43:33.013Z,98929.50
2023-02-06T08:47:35.869Z,98918.06
2023-02-06T08:51:37.937Z,98915.28
2023-02-06T08:55:38.608Z,98897.66
2023-02-06T08:59:39.051Z,98918.34
2023-02-06T09:03:41.877Z,98895.50
2023-02-06T09:07:41.976Z,98895.84
2023-02-06T09:11:42.560Z,98891.78
2023-02-06T09:15:44.155Z,98891.72
2023-02-06T09:19:46.933Z,98866.72
2023-02-06T09:23:50.144Z,98886.63
2023-02-06T09:27:53.163Z,98869.41
2023-02-06T09:31:53.292Z,98865.75
2023-02-06T09:36:05.444Z,98850.50
2023-02-06T09:40:05.606Z,98861.41
2023-02-06T09:44:15.310Z,98838.16
2023-02-06T09:48:23.317Z,98852.91
2023-02-06T09:53:01.857Z,98836.56
2023-02-06T09:57:10.844Z,98805.13
2023-02-06T10:01:22.187Z,98838.13
2023-02-06T10:05:36.809Z,98826.53
2023-02-06T10:09:45.726Z,98810.44
2023-02-06T10:13:54.542Z,98791.19
2023-02-06T10:18:03.082Z,98790.31
2023-02-06T10:22:09.976Z,98797.44
2023-02-06T10:26:18.660Z,98793.16
2023-02-06T10:30:22.668Z,98803.19
2023-02-06T10:35:06.387Z,98788.84
2023-02-06T10:39:27.846Z,98782.63
2023-02-06T10:43:43.708Z,98774.81
2023-02-06T10:47:55.186Z,98778.31
2023-02-06T10:52:02.830Z,98775.13
2023-02-06T10:56:07.180Z,98779.53
2023-02-06T11:00:20.223Z,98776.94
2023-02-06T11:04:27.965Z,98764.63
2023-02-06T11:08:33.870Z,98755.91
2023-02-06T11:12:39.017Z,98753.19
2023-02-06T11:16:43.241Z,98741.91
2023-02-06T11:20:47.425Z,98754.16
2023-02-06T11:25:04.114Z,98710.94
2023-02-06T11:29:18.816Z,98708.28
2023-02-06T11:33:31.236Z,98728.47
2023-02-06T11:37:38.481Z,98732.31
2023-02-06T11:41:38.617Z,98732.94
2023-02-06T11:45:39.621Z,98733.41
2023-02-06T11:49:42.737Z,98732.53
2023-02-06T11:53:58.549Z,98738.81
2023-02-06T11:58:22.485Z,98726.19
2023-02-06T12:02:32.042Z,98713.25
2023-02-06T12:06:39.096Z,98714.44
2023-02-06T12:10:49.164Z,98710.38
2023-02-06T12:14:55.835Z,98697.97
2023-02-06T12:19:00.725Z,98704.22
2023-02-06T12:23:14.722Z,98695.03
2023-02-06T12:27:22.661Z,98689.78
2023-02-06T12:31:32.234Z,98685.13
2023-02-06T12:35:43.878Z,98686.28
2023-02-06T12:39:47.405Z,98694.13
2023-02-06T12:43:54.733Z,98700.13
2023-02-06T12:48:04.447Z,98694.88
2023-02-06T12:52:17.452Z,98700.84
2023-02-06T12:56:31.428Z,98691.53
2023-02-06T13:01:08.289Z,98687.13
2023-02-06T13:05:25.221Z,98683.53
2023-02-06T13:09:32.462Z,98675.00
2023-02-06T13:13:39.310Z,98685.06
2023-02-06T13:17:44.880Z,98692.25
2023-02-06T13:21:53.873Z,98692.94
2023-02-06T13:25:56.973Z,98699.22
2023-02-06T13:30:18.557Z,98693.81
2023-02-06T13:34:21.743Z,98702.38
2023-02-06T13:38:42.379Z,98687.00
2023-02-06T13:42:51.993Z,98686.28
2023-02-06T13:47:31.287Z,98674.44
2023-02-06T13:51:52.567Z,98678.41
2023-02-06T13:56:22.000Z,98659.88
2023-02-06T14:00:28.995Z,98665.31
2023-02-06T14:04:34.549Z,98670.47
2023-02-06T14:08:51.516Z,98666.38
2023-02-06T14:13:10.664Z,98687.28
2023-02-06T14:17:28.280Z,98681.50
2023-02-06T14:21:49.593Z,98670.19
2023-02-06T14:26:27.607Z,98674.00
2023-02-06T14:30:40.380Z,98685.00
2023-02-06T14:35:01.555Z,98684.00
2023-02-06T14:39:48.814Z,98684.66
2023-02-06T14:43:53.599Z,98680.44
2023-02-06T14:47:56.046Z,98687.59
2023-02-06T14:51:56.406Z,98671.16
2023-02-06T14:56:12.387Z,98662.53
2023-02-06T15:00:22.487Z,98688.84
2023-02-06T15:04:26.140Z,98690.94
2023-02-06T15:08:26.190Z,98689.19
2023-02-06T15:12:32.195Z,98685.06
2023-02-06T15:16:33.123Z,98689.16
2023-02-06T15:20:40.471Z,98679.81
2023-02-06T15:25:13.102Z,98670.94
2023-02-06T15:29:23.081Z,98689.22
2023-02-06T15:38:42.834Z,98634.88
2023-02-06T15:42:48.346Z,98657.59
2023-02-06T15:46:55.730Z,98673.19
2023-02-06T15:51:05.765Z,98647.31
2023-02-06T15:55:08.807Z,98694.97
2023-02-06T15:59:21.934Z,98691.16
2023-02-06T16:03:32.681Z,98708.88
2023-02-06T16:07:37.456Z,98632.88
2023-02-06T16:11:52.455Z,98636.88
2023-02-06T16:16:22.926Z,98715.13
2023-02-06T16:20:40.993Z,98714.13
2023-02-06T16:24:41.204Z,98654.38
2023-02-06T16:28:52.555Z,98724.88
2023-02-06T16:32:55.562Z,98699.72
2023-02-06T16:37:01.210Z,98735.78
2023-02-06T16:41:02.579Z,98708.81
2023-02-06T16:45:12.099Z,98703.44
2023-02-06T16:49:16.450Z,98692.69
2023-02-06T16:53:24.056Z,98743.44
2023-02-06T16:57:30.897Z,98736.09
2023-02-06T17:01:33.182Z,98700.56
2023-02-06T17:05:36.190Z,98711.72
2023-02-06T17:09:39.123Z,98763.09
2023-02-06T17:13:39.355Z,98775.25
2023-02-06T17:17:39.754Z,98784.91
2023-02-06T17:21:40.136Z,98792.34
2023-02-06T17:25:46.347Z,98803.38
2023-02-06T17:29:47.766Z,98803.13
2023-02-06T17:33:48.185Z,98797.06
2023-02-06T17:37:49.335Z,98805.31
2023-02-06T17:41:53.180Z,98806.72
2023-02-06T17:45:53.258Z,98815.53
2023-02-06T17:49:53.556Z,98810.28
2023-02-06T17:53:54.716Z,98786.13
2023-02-06T17:57:59.103Z,98819.50
2023-02-06T18:02:00.136Z,98794.81
2023-02-06T18:06:02.804Z,98842.59
2023-02-06T18:10:11.128Z,98854.88
2023-02-06T18:14:13.876Z,98855.03
2023-02-06T18:18:17.959Z,98818.22
2023-02-06T18:22:27.106Z,98854.13
2023-02-06T18:26:30.797Z,98838.63
2023-02-06T18:30:36.833Z,98816.22
2023-02-06T18:34:37.642Z,98842.84
2023-02-06T18:38:38.264Z,98852.22
2023-02-06T18:42:50.795Z,98824.06
2023-02-06T18:46:53.909Z,98858.47
2023-02-06T18:50:56.972Z,98815.81
2023-02-06T18:54:58.825Z,98842.00
2023-02-06T18:58:59.256Z,98833.28
2023-02-06T19:03:04.679Z,98858.41
2023-02-06T19:07:04.862Z,98855.34
2023-02-06T19:11:05.222Z,98849.34
2023-02-06T19:15:05.527Z,98863.25
2023-02-06T19:19:09.753Z,98881.44
2023-02-06T19:23:10.253Z,98878.81
2023-02-06T19:27:10.575Z,98894.44
2023-02-06T19:31:13.143Z,98905.38
2023-02-06T19:35:17.325Z,98857.75
2023-02-06T19:39:17.737Z,98868.63
2023-02-06T19:43:19.119Z,98876.41
2023-02-06T19:47:19.289Z,98897.69
2023-02-06T19:51:25.966Z,98862.81
2023-02-06T19:55:26.102Z,98881.38
2023-02-06T19:59:29.481Z,98874.59
2023-02-06T20:03:29.754Z,98836.31
2023-02-06T20:07:33.157Z,98908.22
2023-02-06T20:11:35.607Z,98910.56
2023-02-06T20:15:41.259Z,98896.06
2023-02-06T20:19:41.587Z,98914.34
2023-02-06T20:23:44.279Z,98933.66
2023-02-06T20:27:44.413Z,98926.44
2023-02-06T20:31:45.083Z,98914.91
2023-02-06T20:35:46.105Z,98906.72
2023-02-06T20:39:49.556Z,98923.25
2023-02-06T20:43:51.150Z,98910.69
2023-02-06T20:47:51.348Z,98906.59
2023-02-06T20:51:52.809Z,98899.66
2023-02-06T20:55:55.710Z,98898.41
2023-02-06T20:59:56.188Z,98899.84
2023-02-06T21:04:02.657Z,98906.31
2023-02-06T21:08:04.573Z,98889.91
2023-02-06T21:12:08.069Z,98916.69
2023-02-06T21:16:10.865Z,98916.69
2023-02-06T21:20:14.038Z,98946.22
2023-02-06T21:24:14.662Z,98959.09
2023-02-06T21:28:19.304Z,98945.59
2023-02-06T21:32:19.519Z,98955.53
2023-02-06T21:36:21.322Z,98962.19
2023-02-06T21:40:21.641Z,98958.47
2023-02-06T21:44:26.601Z,98942.47
2023-02-06T21:48:26.632Z,98978.84
2023-02-06T21:52:26.821Z,98979.25
2023-02-06T21:56:30.336Z,98966.72
2023-02-06T22:00:32.991Z,98979.94
2023-02-06T22:04:33.430Z,98977.22
2023-02-06T22:08:34.469Z,98960.19
2023-02-06T22:12:34.792Z,98977.91
2023-02-06T22:16:37.581Z,99000.78
2023-02-06T22:20:37.615Z,98997.41
2023-02-06T22:24:37.673Z,99011.31
2023-02-06T22:28:38.424Z,99007.19
2023-02-06T22:32:42.943Z,99012.59
2023-02-06T22:36:44.632Z,98996.78
2023-02-06T22:40:44.676Z,99020.53
2023-02-06T22:44:44.750Z,99021.75
2023-02-06T22:48:47.417Z,99015.94
2023-02-06T22:52:59.952Z,99009.81
2023-02-06T22:57:00.239Z,99027.09
2023-02-06T23:01:05.494Z,99044.13
2023-02-06T23:05:10.583Z,99049.34
2023-02-06T23:09:15.330Z,99036.59
2023-02-06T23:13:15.501Z,99055.69
2023-02-06T23:17:15.588Z,99046.56
2023-02-06T23:21:20.921Z,98994.28
2023-02-06T23:25:21.179Z,99034.19
2023-02-06T23:29:25.531Z,99057.28
2023-02-06T23:33:25.759Z,99060.09
2023-02-06T23:37:28.830Z,99084.63
2023-02-06T23:41:30.961Z,99081.72
2023-02-06T23:45:31.412Z,99028.91
2023-02-06T23:49:31.689Z,99049.28
2023-02-06T23:53:34.787Z,99045.47
2023-02-06T23:57:37.886Z,99023.25
